Time;durP1;ratioP1;P1;durP2;ratioP2;P2;SDS_P1;SDS_P2;PMS_P1;PMS_P2;Temp;Humidity;BMP_temperature;BMP_pressure;BME280_temperature;BME280_humidity;BME280_pressure;Samples;Min_cycle;Max_cycle;Signal;HPM_P1;HPM_P2
2021/05/19 00:00:55;;;;;;;3.17;1.50;;;;;;;;;;5006533;28;20050;-46
2021/05/19 00:03:22;;;;;;;3.47;1.45;;;;;;;;;;5008259;28;20553;-46
2021/05/19 00:05:49;;;;;;;3.05;1.40;;;;;;;;;;5007286;28;20054;-46
2021/05/19 00:08:16;;;;;;;2.58;1.35;;;;;;;;;;5006711;28;20065;-44
2021/05/19 00:10:43;;;;;;;2.65;1.50;;;;;;;;;;5007992;28;20053;-44
2021/05/19 00:13:09;;;;;;;3.10;1.50;;;;;;;;;;5008025;28;20134;-45
2021/05/19 00:15:36;;;;;;;3.35;1.70;;;;;;;;;;5007737;28;20462;-44
2021/05/19 00:18:04;;;;;;;2.78;1.40;;;;;;;;;;5005745;28;20092;-43
2021/05/19 00:20:32;;;;;;;3.35;1.70;;;;;;;;;;5008875;28;20472;-45
2021/05/19 00:22:59;;;;;;;4.70;1.67;;;;;;;;;;5007266;28;20057;-44
2021/05/19 00:25:25;;;;;;;3.17;1.40;;;;;;;;;;5006727;28;21913;-43
2021/05/19 00:27:54;;;;;;;3.65;1.50;;;;;;;;;;5005649;28;20426;-47
2021/05/19 00:30:21;;;;;;;2.47;1.50;;;;;;;;;;5007667;28;20633;-44
2021/05/19 00:32:48;;;;;;;2.55;1.40;;;;;;;;;;5004719;28;20046;-47
2021/05/19 00:35:15;;;;;;;3.03;1.50;;;;;;;;;;5005753;28;20434;-46
2021/05/19 00:37:42;;;;;;;3.08;1.35;;;;;;;;;;5003628;28;20046;-45
2021/05/19 00:40:10;;;;;;;2.08;1.50;;;;;;;;;;5020910;23;20537;-52
2021/05/19 00:42:37;;;;;;;5.30;1.63;;;;;;;;;;5011991;28;20045;-54
2021/05/19 00:45:05;;;;;;;3.15;1.50;;;;;;;;;;5011655;28;20057;-55
2021/05/19 00:47:36;;;;;;;2.25;1.38;;;;;;;;;;5009427;28;20050;-51
2021/05/19 00:50:04;;;;;;;3.13;1.38;;;;;;;;;;5008283;28;20046;-53
2021/05/19 00:52:31;;;;;;;3.78;1.23;;;;;;;;;;5008549;28;20053;-54
2021/05/19 00:54:57;;;;;;;4.05;1.30;;;;;;;;;;5000699;28;20084;-54
2021/05/19 00:57:25;;;;;;;4.47;1.30;;;;;;;;;;5010743;28;20041;-51
2021/05/19 00:59:52;;;;;;;3.15;1.10;;;;;;;;;;5007603;28;20046;-53
2021/05/19 01:02:26;;;;;;;3.33;1.00;;;;;;;;;;5008859;28;20609;-50
2021/05/19 01:04:53;;;;;;;4.30;1.20;;;;;;;;;;4992584;28;20365;-50
2021/05/19 01:09:34;;;;;;;2.17;1.20;;;;;;;;;;4997852;28;20129;-55
2021/05/19 01:10:32;;;;;;;2.05;1.08;;;;;;;;;;5009719;28;20061;-56
2021/05/19 01:12:59;;;;;;;1.98;1.08;;;;;;;;;;5012698;28;20438;-54
2021/05/19 01:15:29;;;;;;;3.58;1.15;;;;;;;;;;5001945;28;20050;-55
2021/05/19 01:17:56;;;;;;;2.05;1.10;;;;;;;;;;4992707;28;20046;-53
2021/05/19 01:20:23;;;;;;;2.05;1.20;;;;;;;;;;4992976;28;20508;-53
2021/05/19 01:22:50;;;;;;;2.67;1.20;;;;;;;;;;5008190;28;20135;-53
2021/05/19 01:25:17;;;;;;;2.28;1.10;;;;;;;;;;4992990;28;20065;-51
2021/05/19 01:27:51;;;;;;;2.13;1.10;;;;;;;;;;4993324;28;20408;-52
2021/05/19 01:30:20;;;;;;;2.85;1.20;;;;;;;;;;4991614;28;20050;-54
2021/05/19 01:32:47;;;;;;;2.28;0.98;;;;;;;;;;4991498;28;20129;-51
2021/05/19 01:35:14;;;;;;;2.42;1.10;;;;;;;;;;4992459;28;20447;-55
2021/05/19 01:37:42;;;;;;;2.05;1.00;;;;;;;;;;4992109;28;20050;-51
2021/05/19 01:40:12;;;;;;;3.67;0.93;;;;;;;;;;4992774;28;20046;-52
2021/05/19 01:42:40;;;;;;;2.30;0.93;;;;;;;;;;4992546;28;20333;-51
2021/05/19 01:45:22;;;;;;;3.10;1.10;;;;;;;;;;4992077;28;20048;-51
2021/05/19 01:47:51;;;;;;;1.20;0.80;;;;;;;;;;4992112;28;20076;-52
2021/05/19 01:50:20;;;;;;;1.77;1.00;;;;;;;;;;4992689;28;20050;-52
2021/05/19 01:52:49;;;;;;;1.25;0.82;;;;;;;;;;4992135;28;20043;-53
2021/05/19 01:55:16;;;;;;;2.47;1.30;;;;;;;;;;5006914;28;20508;-53
2021/05/19 01:57:44;;;;;;;1.58;1.05;;;;;;;;;;4996452;28;20062;-53
2021/05/19 02:00:13;;;;;;;1.42;0.85;;;;;;;;;;5010630;28;20085;-52
2021/05/19 02:02:53;;;;;;;1.73;1.00;;;;;;;;;;5010659;28;20050;-50
2021/05/19 02:05:22;;;;;;;3.40;0.90;;;;;;;;;;5010666;28;20060;-53
2021/05/19 02:07:49;;;;;;;2.20;1.10;;;;;;;;;;4997638;28;20068;-52
2021/05/19 02:10:16;;;;;;;2.17;1.20;;;;;;;;;;4990719;28;20047;-51
2021/05/19 02:12:43;;;;;;;2.40;0.90;;;;;;;;;;4990630;28;20057;-50
2021/05/19 02:15:15;;;;;;;2.85;1.08;;;;;;;;;;5007019;28;20469;-50
2021/05/19 02:17:43;;;;;;;2.30;1.05;;;;;;;;;;5006586;28;20069;-53
2021/05/19 02:20:12;;;;;;;3.50;1.00;;;;;;;;;;4989620;28;20407;-51
2021/05/19 02:22:40;;;;;;;2.05;1.00;;;;;;;;;;4991915;28;20054;-52
2021/05/19 02:25:08;;;;;;;2.50;1.02;;;;;;;;;;4974741;28;20463;-49
2021/05/19 02:27:35;;;;;;;2.05;1.00;;;;;;;;;;4991618;28;20148;-52
2021/05/19 02:30:03;;;;;;;2.35;1.10;;;;;;;;;;4990740;28;20072;-53
2021/05/19 02:32:30;;;;;;;2.00;1.13;;;;;;;;;;4991790;28;20042;-51
2021/05/19 02:34:59;;;;;;;1.95;0.90;;;;;;;;;;4992217;28;20042;-49
2021/05/19 02:37:26;;;;;;;2.42;1.35;;;;;;;;;;5006676;28;20043;-53
2021/05/19 02:39:53;;;;;;;1.23;0.90;;;;;;;;;;4990971;28;20046;-49
2021/05/19 02:42:20;;;;;;;2.03;1.20;;;;;;;;;;4992297;28;20066;-50
2021/05/19 02:44:48;;;;;;;2.55;1.25;;;;;;;;;;4990574;28;20074;-54
2021/05/19 02:47:15;;;;;;;3.08;1.40;;;;;;;;;;5006714;28;20078;-52
2021/05/19 02:49:42;;;;;;;1.80;1.00;;;;;;;;;;4991768;28;20074;-54
2021/05/19 02:52:09;;;;;;;4.28;1.40;;;;;;;;;;4991834;28;20400;-50
2021/05/19 02:54:36;;;;;;;2.10;1.30;;;;;;;;;;4992138;28;20408;-52
2021/05/19 02:57:02;;;;;;;3.30;1.50;;;;;;;;;;4993818;28;20054;-52
2021/05/19 02:59:29;;;;;;;2.35;1.20;;;;;;;;;;5007618;28;20129;-52
2021/05/19 03:01:56;;;;;;;3.78;1.20;;;;;;;;;;5011556;28;20061;-51
2021/05/19 03:04:23;;;;;;;2.42;1.13;;;;;;;;;;5014988;28;20415;-52
2021/05/19 03:06:50;;;;;;;2.10;1.13;;;;;;;;;;5010444;28;20046;-54
2021/05/19 03:09:17;;;;;;;3.58;1.30;;;;;;;;;;4995617;28;20063;-54
2021/05/19 03:11:44;;;;;;;3.55;1.60;;;;;;;;;;5010414;28;20062;-51
2021/05/19 03:14:11;;;;;;;2.22;1.20;;;;;;;;;;4995490;28;20054;-54
2021/05/19 03:16:38;;;;;;;2.13;1.20;;;;;;;;;;4994100;28;20081;-51
2021/05/19 03:19:06;;;;;;;5.20;1.40;;;;;;;;;;5010449;28;20117;-48
2021/05/19 03:21:33;;;;;;;3.78;1.40;;;;;;;;;;4995218;28;20046;-52
2021/05/19 03:24:01;;;;;;;2.35;1.35;;;;;;;;;;5022120;28;20043;-52
2021/05/19 03:26:29;;;;;;;2.40;1.25;;;;;;;;;;5034862;28;20049;-52
2021/05/19 03:28:56;;;;;;;3.60;1.40;;;;;;;;;;5010881;28;20055;-53
2021/05/19 03:31:23;;;;;;;2.08;1.30;;;;;;;;;;4995357;28;20054;-53
2021/05/19 03:33:50;;;;;;;2.83;1.40;;;;;;;;;;5010340;28;20051;-54
2021/05/19 03:36:17;;;;;;;2.70;1.80;;;;;;;;;;4994871;28;20081;-53
2021/05/19 03:38:44;;;;;;;3.08;1.30;;;;;;;;;;4993900;28;20496;-52
2021/05/19 03:41:10;;;;;;;3.35;1.30;;;;;;;;;;4995308;28;20121;-52
2021/05/19 03:43:37;;;;;;;2.25;1.42;;;;;;;;;;4995242;28;20050;-50
2021/05/19 03:46:06;;;;;;;2.83;1.38;;;;;;;;;;4997085;28;20051;-51
2021/05/19 03:48:32;;;;;;;2.55;1.77;;;;;;;;;;5014794;28;20061;-53
2021/05/19 03:50:59;;;;;;;2.40;1.67;;;;;;;;;;5014412;28;20131;-50
2021/05/19 03:53:26;;;;;;;3.45;1.60;;;;;;;;;;5014384;28;20403;-51
2021/05/19 03:55:53;;;;;;;3.92;2.13;;;;;;;;;;5009069;28;20129;-54
2021/05/19 03:58:20;;;;;;;5.82;2.38;;;;;;;;;;5003120;28;20511;-49
2021/05/19 04:00:47;;;;;;;3.10;2.10;;;;;;;;;;5014185;28;20050;-50
2021/05/19 04:03:14;;;;;;;3.00;2.20;;;;;;;;;;5014257;28;20061;-53
2021/05/19 04:05:41;;;;;;;6.72;2.17;;;;;;;;;;5014459;28;20058;-53
2021/05/19 04:08:08;;;;;;;3.13;2.03;;;;;;;;;;4994183;28;20058;-54
2021/05/19 04:10:36;;;;;;;3.60;2.13;;;;;;;;;;4993316;28;20050;-54
2021/05/19 04:13:05;;;;;;;4.55;2.50;;;;;;;;;;4994464;28;20043;-53
2021/05/19 04:15:33;;;;;;;4.65;3.03;;;;;;;;;;4993666;28;20046;-49
2021/05/19 04:18:00;;;;;;;4.75;2.67;;;;;;;;;;4994517;28;20057;-51
2021/05/19 04:20:27;;;;;;;4.63;3.15;;;;;;;;;;4995365;28;20506;-52
2021/05/19 04:22:54;;;;;;;5.85;3.67;;;;;;;;;;4993956;28;20512;-50
2021/05/19 04:25:21;;;;;;;6.07;3.47;;;;;;;;;;4994195;28;20050;-55
2021/05/19 04:27:48;;;;;;;8.27;3.67;;;;;;;;;;4994140;28;20073;-52
2021/05/19 04:30:15;;;;;;;5.82;3.70;;;;;;;;;;4993834;28;20062;-52
2021/05/19 04:32:42;;;;;;;5.28;3.63;;;;;;;;;;4993949;28;20475;-50
2021/05/19 04:35:13;;;;;;;6.97;4.22;;;;;;;;;;4993921;28;20077;-52
2021/05/19 04:37:40;;;;;;;8.88;4.80;;;;;;;;;;4993786;28;20452;-53
2021/05/19 04:40:07;;;;;;;7.85;4.43;;;;;;;;;;4994384;28;20046;-54
2021/05/19 04:42:34;;;;;;;6.75;3.67;;;;;;;;;;4994193;28;20050;-50
2021/05/19 04:45:02;;;;;;;5.35;4.18;;;;;;;;;;4993707;28;20088;-53
2021/05/19 04:47:28;;;;;;;5.95;4.28;;;;;;;;;;5010016;28;20050;-50
2021/05/19 04:49:55;;;;;;;5.43;3.55;;;;;;;;;;5013506;28;20042;-52
2021/05/19 04:52:23;;;;;;;6.38;3.58;;;;;;;;;;5013115;28;20100;-53
2021/05/19 04:54:50;;;;;;;6.68;3.85;;;;;;;;;;5012620;28;20073;-52
2021/05/19 04:57:18;;;;;;;7.93;4.05;;;;;;;;;;4997089;28;20439;-55
2021/05/19 04:59:44;;;;;;;4.65;3.65;;;;;;;;;;5009501;28;20092;-55
2021/05/19 05:02:12;;;;;;;5.32;3.78;;;;;;;;;;5013104;28;20049;-54
2021/05/19 05:04:38;;;;;;;6.93;4.50;;;;;;;;;;5011735;28;20061;-54
2021/05/19 05:07:05;;;;;;;4.75;3.25;;;;;;;;;;4999080;28;20500;-53
2021/05/19 05:09:32;;;;;;;5.43;3.67;;;;;;;;;;4992093;28;20459;-51
2021/05/19 05:11:59;;;;;;;5.43;3.13;;;;;;;;;;4993252;28;20054;-51
2021/05/19 05:14:26;;;;;;;6.20;3.97;;;;;;;;;;4993007;28;20050;-54
2021/05/19 05:16:53;;;;;;;5.75;4.00;;;;;;;;;;4993109;28;20062;-54
2021/05/19 05:19:20;;;;;;;6.03;4.20;;;;;;;;;;4993227;28;20120;-54
2021/05/19 05:21:46;;;;;;;5.97;4.15;;;;;;;;;;4993293;28;20130;-55
2021/05/19 05:24:14;;;;;;;5.72;4.50;;;;;;;;;;4993053;28;20095;-53
2021/05/19 05:26:41;;;;;;;5.13;4.13;;;;;;;;;;4991720;28;20081;-55
2021/05/19 05:29:08;;;;;;;6.07;4.55;;;;;;;;;;4992912;28;20053;-54
2021/05/19 05:31:34;;;;;;;5.05;3.60;;;;;;;;;;4992946;28;20137;-54
2021/05/19 05:34:01;;;;;;;5.82;3.72;;;;;;;;;;4993063;28;20047;-54
2021/05/19 05:36:28;;;;;;;4.82;3.40;;;;;;;;;;4992552;28;20081;-55
2021/05/19 05:38:55;;;;;;;7.18;4.25;;;;;;;;;;5001977;28;20053;-52
2021/05/19 05:41:22;;;;;;;5.05;3.05;;;;;;;;;;5009090;28;20046;-52
2021/05/19 05:43:49;;;;;;;5.20;3.25;;;;;;;;;;4992811;28;20129;-51
2021/05/19 05:46:16;;;;;;;5.80;3.58;;;;;;;;;;4992485;28;20070;-52
2021/05/19 05:48:44;;;;;;;5.35;3.22;;;;;;;;;;5012035;28;20050;-54
2021/05/19 05:51:11;;;;;;;5.20;3.30;;;;;;;;;;5029511;28;20076;-56
2021/05/19 05:53:38;;;;;;;5.47;3.30;;;;;;;;;;5012059;28;20503;-54
2021/05/19 05:56:05;;;;;;;7.60;3.65;;;;;;;;;;4994844;28;20050;-56
2021/05/19 05:58:32;;;;;;;5.57;3.97;;;;;;;;;;5004364;28;20045;-52
2021/05/19 06:00:59;;;;;;;4.05;2.90;;;;;;;;;;5010717;28;20507;-52
2021/05/19 06:03:26;;;;;;;6.13;4.00;;;;;;;;;;5011588;28;20380;-54
2021/05/19 06:05:55;;;;;;;6.88;3.80;;;;;;;;;;5011970;28;20085;-54
2021/05/19 06:08:23;;;;;;;6.60;3.45;;;;;;;;;;5008187;28;20415;-49
2021/05/19 06:10:50;;;;;;;8.63;4.93;;;;;;;;;;5012592;28;20080;-54
2021/05/19 06:13:18;;;;;;;6.53;4.00;;;;;;;;;;5002310;28;20049;-51
2021/05/19 06:15:45;;;;;;;6.22;4.25;;;;;;;;;;5012797;28;20044;-51
2021/05/19 06:18:12;;;;;;;5.13;4.15;;;;;;;;;;4998742;28;20056;-53
2021/05/19 06:20:41;;;;;;;6.13;4.25;;;;;;;;;;5018381;28;20042;-53
2021/05/19 06:23:10;;;;;;;5.68;4.72;;;;;;;;;;5019194;28;20053;-54
2021/05/19 06:25:37;;;;;;;6.03;4.07;;;;;;;;;;5033325;28;20447;-51
2021/05/19 06:28:05;;;;;;;7.78;4.50;;;;;;;;;;5011449;28;20046;-49
2021/05/19 06:30:32;;;;;;;5.25;4.13;;;;;;;;;;5001331;28;20451;-51
2021/05/19 06:33:02;;;;;;;7.57;4.07;;;;;;;;;;5010009;28;20077;-50
2021/05/19 06:35:30;;;;;;;6.82;4.13;;;;;;;;;;4994322;28;20046;-53
2021/05/19 06:37:57;;;;;;;6.07;4.60;;;;;;;;;;4992043;28;20058;-56
2021/05/19 06:40:24;;;;;;;6.75;4.60;;;;;;;;;;4993085;28;20057;-53
2021/05/19 06:42:52;;;;;;;6.18;4.68;;;;;;;;;;5013877;28;20506;-49
2021/05/19 06:45:18;;;;;;;6.25;4.60;;;;;;;;;;5022161;28;20064;-49
2021/05/19 06:47:46;;;;;;;7.32;4.68;;;;;;;;;;5031338;28;20053;-48
2021/05/19 06:50:13;;;;;;;6.70;4.97;;;;;;;;;;5017522;28;20085;-49
2021/05/19 06:52:40;;;;;;;6.35;5.68;;;;;;;;;;5012031;28;20082;-51
2021/05/19 06:55:07;;;;;;;6.00;4.95;;;;;;;;;;5010591;28;20471;-54
2021/05/19 06:57:37;;;;;;;6.82;5.47;;;;;;;;;;5010793;28;20057;-54
2021/05/19 07:00:04;;;;;;;6.93;6.22;;;;;;;;;;5005831;28;20038;-56
2021/05/19 07:02:31;;;;;;;7.55;6.05;;;;;;;;;;5024433;28;20100;-51
2021/05/19 07:04:59;;;;;;;7.15;5.88;;;;;;;;;;5012369;28;20400;-54
2021/05/19 07:07:25;;;;;;;7.82;6.35;;;;;;;;;;5019421;28;20077;-51
2021/05/19 07:09:57;;;;;;;8.13;6.20;;;;;;;;;;5010023;28;20116;-55
2021/05/19 07:12:24;;;;;;;9.20;6.25;;;;;;;;;;5015783;28;20042;-54
2021/05/19 07:14:58;;;;;;;7.10;6.03;;;;;;;;;;5003911;28;20056;-54
2021/05/19 07:17:27;;;;;;;7.93;6.30;;;;;;;;;;5003995;28;20108;-53
2021/05/19 07:19:54;;;;;;;7.35;6.13;;;;;;;;;;4990634;28;20050;-52
2021/05/19 07:22:22;;;;;;;7.50;6.30;;;;;;;;;;4997204;28;20059;-51
2021/05/19 07:24:53;;;;;;;10.38;6.60;;;;;;;;;;5016918;28;20514;-57
2021/05/19 07:27:20;;;;;;;8.82;6.88;;;;;;;;;;4997217;28;20132;-52
2021/05/19 07:29:47;;;;;;;7.88;6.25;;;;;;;;;;5010127;28;20057;-52
2021/05/19 07:32:14;;;;;;;7.97;6.18;;;;;;;;;;5008238;28;20054;-48
2021/05/19 07:34:41;;;;;;;7.63;6.72;;;;;;;;;;5005847;28;20061;-49
2021/05/19 07:37:11;;;;;;;6.60;5.65;;;;;;;;;;5009564;28;20064;-54
2021/05/19 07:39:38;;;;;;;7.85;6.35;;;;;;;;;;5011039;28;20060;-51
2021/05/19 07:42:08;;;;;;;8.20;6.40;;;;;;;;;;5010353;28;20054;-52
2021/05/19 07:44:36;;;;;;;9.05;6.45;;;;;;;;;;5011506;28;20058;-55
2021/05/19 07:47:02;;;;;;;6.32;5.13;;;;;;;;;;5008715;28;20040;-55
2021/05/19 07:49:28;;;;;;;6.85;6.15;;;;;;;;;;5017686;28;20033;-53
2021/05/19 07:51:54;;;;;;;7.93;5.90;;;;;;;;;;5013760;28;20037;-53
2021/05/19 07:54:28;;;;;;;7.60;6.47;;;;;;;;;;5011950;28;20037;-51
2021/05/19 07:57:00;;;;;;;8.25;6.80;;;;;;;;;;5014910;28;20079;-49
2021/05/19 07:59:29;;;;;;;7.60;6.80;;;;;;;;;;5006652;28;20034;-53
2021/05/19 08:02:02;;;;;;;7.13;6.43;;;;;;;;;;5020549;28;20040;-50
2021/05/19 08:04:34;;;;;;;9.48;6.63;;;;;;;;;;5009981;28;20531;-50
2021/05/19 08:07:00;;;;;;;7.82;6.70;;;;;;;;;;5005385;28;20033;-50
2021/05/19 08:09:26;;;;;;;7.60;6.72;;;;;;;;;;5013611;28;20056;-55
2021/05/19 08:11:52;;;;;;;7.13;6.22;;;;;;;;;;5009219;28;20038;-53
2021/05/19 08:14:18;;;;;;;7.75;6.50;;;;;;;;;;5015558;28;20040;-52
2021/05/19 08:16:44;;;;;;;7.00;5.95;;;;;;;;;;5011846;28;20382;-51
2021/05/19 08:19:10;;;;;;;7.10;6.10;;;;;;;;;;5008380;28;20030;-53
2021/05/19 08:21:39;;;;;;;7.45;6.38;;;;;;;;;;5012415;28;20049;-50
2021/05/19 08:24:06;;;;;;;5.32;4.30;;;;;;;;;;5009001;28;20064;-47
2021/05/19 08:26:33;;;;;;;6.88;4.72;;;;;;;;;;5007321;28;20052;-47
2021/05/19 08:29:00;;;;;;;6.22;5.40;;;;;;;;;;5008771;28;20053;-54
2021/05/19 08:31:27;;;;;;;8.18;5.75;;;;;;;;;;5006069;28;20042;-52
2021/05/19 08:34:09;;;;;;;7.22;6.30;;;;;;;;;;5010370;28;20046;-49
2021/05/19 08:36:36;;;;;;;7.78;6.55;;;;;;;;;;5016635;28;20057;-52
2021/05/19 08:39:05;;;;;;;8.07;6.07;;;;;;;;;;5004343;28;20057;-54
2021/05/19 08:41:32;;;;;;;8.88;7.75;;;;;;;;;;5010379;28;20034;-54
2021/05/19 08:43:59;;;;;;;8.10;7.00;;;;;;;;;;5014437;28;20526;-53
2021/05/19 08:46:27;;;;;;;9.30;7.15;;;;;;;;;;5013545;28;20077;-54
2021/05/19 08:49:03;;;;;;;9.38;7.03;;;;;;;;;;5009305;28;20081;-50
2021/05/19 08:51:30;;;;;;;8.10;6.97;;;;;;;;;;5011626;28;20053;-48
2021/05/19 08:53:57;;;;;;;10.68;8.90;;;;;;;;;;5008989;28;20442;-49
2021/05/19 08:56:24;;;;;;;11.02;9.27;;;;;;;;;;5005823;28;20038;-50
2021/05/19 08:58:51;;;;;;;12.38;10.00;;;;;;;;;;5006525;28;20399;-47
2021/05/19 09:01:21;;;;;;;13.60;11.10;;;;;;;;;;5007704;28;20056;-48
2021/05/19 09:04:01;;;;;;;13.40;10.63;;;;;;;;;;5006660;28;20058;-55
2021/05/19 09:06:32;;;;;;;10.15;8.95;;;;;;;;;;5003413;28;20075;-48
2021/05/19 09:08:59;;;;;;;12.15;9.32;;;;;;;;;;5010652;28;20053;-52
2021/05/19 09:11:49;;;;;;;10.25;9.15;;;;;;;;;;5003945;28;20061;-53
2021/05/19 09:14:17;;;;;;;11.13;9.57;;;;;;;;;;5003118;28;20072;-56
2021/05/19 09:16:44;;;;;;;10.10;9.00;;;;;;;;;;5022814;28;20046;-54
2021/05/19 09:19:11;;;;;;;10.13;9.10;;;;;;;;;;5008545;28;20451;-51
2021/05/19 09:21:40;;;;;;;10.70;9.25;;;;;;;;;;5008255;28;20050;-57
2021/05/19 09:24:14;;;;;;;10.35;8.82;;;;;;;;;;5004851;28;20089;-55
2021/05/19 09:26:54;;;;;;;9.50;7.85;;;;;;;;;;5009859;28;20070;-57
2021/05/19 09:29:25;;;;;;;9.85;8.43;;;;;;;;;;5007583;28;20054;-55
2021/05/19 09:31:53;;;;;;;13.15;8.60;;;;;;;;;;5012585;28;20054;-54
2021/05/19 09:34:30;;;;;;;9.73;7.50;;;;;;;;;;5009574;28;20073;-50
2021/05/19 09:37:17;;;;;;;9.90;8.90;;;;;;;;;;5005943;28;20048;-55
2021/05/19 09:39:45;;;;;;;8.02;7.22;;;;;;;;;;4999295;28;20499;-52
2021/05/19 09:42:12;;;;;;;8.75;7.13;;;;;;;;;;5010286;28;20054;-53
2021/05/19 09:44:40;;;;;;;7.75;6.63;;;;;;;;;;5015494;28;20049;-56
2021/05/19 09:47:07;;;;;;;9.82;6.93;;;;;;;;;;4997167;28;20078;-54
2021/05/19 09:49:35;;;;;;;9.02;6.57;;;;;;;;;;5028344;28;20057;-54
2021/05/19 09:52:17;;;;;;;8.38;6.43;;;;;;;;;;4995644;28;20499;-52
2021/05/19 09:54:44;;;;;;;8.38;7.03;;;;;;;;;;5011234;28;20132;-53
2021/05/19 09:57:16;;;;;;;6.43;5.60;;;;;;;;;;5000840;28;20046;-56
2021/05/19 09:59:45;;;;;;;8.30;6.47;;;;;;;;;;5007867;28;20107;-54
2021/05/19 10:02:12;;;;;;;7.85;7.03;;;;;;;;;;5011879;28;20054;-56
2021/05/19 10:04:51;;;;;;;8.15;6.65;;;;;;;;;;5010962;28;20077;-53
2021/05/19 10:07:20;;;;;;;7.68;6.82;;;;;;;;;;5010412;28;20054;-54
2021/05/19 10:09:48;;;;;;;7.72;6.78;;;;;;;;;;4992604;28;20101;-54
2021/05/19 10:12:16;;;;;;;8.48;7.18;;;;;;;;;;5001972;28;20057;-52
2021/05/19 10:14:43;;;;;;;8.45;7.43;;;;;;;;;;5010369;28;20046;-55
2021/05/19 10:17:12;;;;;;;7.70;6.90;;;;;;;;;;5009130;28;20448;-56
2021/05/19 10:19:54;;;;;;;9.02;7.45;;;;;;;;;;5006180;28;20042;-56
2021/05/19 10:22:24;;;;;;;7.85;6.72;;;;;;;;;;5008152;28;20122;-52
2021/05/19 10:25:06;;;;;;;7.03;6.18;;;;;;;;;;5012597;28;20636;-53
2021/05/19 10:27:46;;;;;;;6.95;6.20;;;;;;;;;;5013234;28;20053;-55
2021/05/19 10:30:32;;;;;;;11.30;6.32;;;;;;;;;;5009063;28;20411;-57
2021/05/19 10:33:00;;;;;;;5.75;4.40;;;;;;;;;;5008262;28;20054;-53
2021/05/19 10:35:29;;;;;;;5.22;4.38;;;;;;;;;;5011179;28;20053;-55
2021/05/19 10:37:56;;;;;;;7.57;4.93;;;;;;;;;;5008958;28;20049;-58
2021/05/19 10:40:28;;;;;;;8.23;5.78;;;;;;;;;;5011676;28;20503;-54
2021/05/19 10:42:56;;;;;;;7.50;5.13;;;;;;;;;;5022527;28;20056;-55
2021/05/19 10:45:26;;;;;;;6.03;5.35;;;;;;;;;;5006681;28;20054;-57
2021/05/19 10:47:53;;;;;;;7.88;5.80;;;;;;;;;;5010419;28;20057;-53
2021/05/19 10:50:36;;;;;;;9.90;6.85;;;;;;;;;;5010245;28;20046;-53
2021/05/19 11:01:08;;;;;;;7.97;6.00;;;;;;;;;;5007922;28;20427;-49
2021/05/19 11:03:35;;;;;;;7.45;5.97;;;;;;;;;;5011722;28;20072;-53
2021/05/19 11:06:03;;;;;;;7.15;6.00;;;;;;;;;;5009003;28;20046;-55
2021/05/19 11:08:35;;;;;;;7.55;5.40;;;;;;;;;;4990204;28;20054;-50
2021/05/19 11:11:22;;;;;;;5.40;4.60;;;;;;;;;;5019384;28;20049;-51
2021/05/19 11:14:03;;;;;;;7.93;4.47;;;;;;;;;;5011517;28;20080;-50
2021/05/19 11:16:45;;;;;;;6.15;4.35;;;;;;;;;;5009973;28;20058;-51
2021/05/19 11:19:25;;;;;;;5.10;4.35;;;;;;;;;;5001430;28;20077;-56
2021/05/19 11:21:56;;;;;;;5.63;4.65;;;;;;;;;;5010460;28;20058;-49
2021/05/19 11:24:26;;;;;;;5.68;4.45;;;;;;;;;;5011937;28;20133;-52
2021/05/19 11:26:54;;;;;;;6.38;4.70;;;;;;;;;;5009957;28;20137;-51
2021/05/19 11:29:22;;;;;;;6.28;4.80;;;;;;;;;;4995793;28;20057;-50
2021/05/19 11:31:55;;;;;;;7.60;4.85;;;;;;;;;;4979638;28;20101;-53
2021/05/19 11:34:28;;;;;;;6.60;4.38;;;;;;;;;;4994922;28;20050;-48
2021/05/19 11:36:58;;;;;;;5.63;4.72;;;;;;;;;;4994206;28;20423;-50
2021/05/19 11:39:34;;;;;;;8.00;6.25;;;;;;;;;;4994685;28;20039;-50
2021/05/19 11:42:36;;;;;;;8.07;6.50;;;;;;;;;;4995819;28;20093;-48
2021/05/19 11:45:06;;;;;;;6.53;5.50;;;;;;;;;;4978519;28;20133;-49
2021/05/19 11:47:40;;;;;;;6.63;5.50;;;;;;;;;;4994630;28;20042;-48
2021/05/19 11:50:08;;;;;;;6.38;5.45;;;;;;;;;;4995467;28;20073;-51
2021/05/19 11:53:02;;;;;;;7.10;5.22;;;;;;;;;;4995706;28;20081;-50
2021/05/19 11:55:29;;;;;;;7.45;4.82;;;;;;;;;;4995588;28;20402;-49
2021/05/19 11:58:02;;;;;;;7.97;4.82;;;;;;;;;;4994623;28;20407;-48
2021/05/19 12:00:36;;;;;;;7.30;6.47;;;;;;;;;;4995485;28;20043;-53
2021/05/19 12:03:06;;;;;;;8.27;6.78;;;;;;;;;;4995138;28;20047;-52
2021/05/19 12:06:00;;;;;;;6.45;5.80;;;;;;;;;;4995180;28;20046;-53
2021/05/19 12:08:48;;;;;;;9.30;6.18;;;;;;;;;;4994694;28;20058;-49
2021/05/19 12:11:19;;;;;;;6.53;5.43;;;;;;;;;;4994958;28;20050;-54
2021/05/19 12:13:55;;;;;;;6.03;4.97;;;;;;;;;;4995011;28;20132;-53
2021/05/19 12:16:29;;;;;;;8.52;5.32;;;;;;;;;;4994450;28;20050;-51
2021/05/19 12:19:10;;;;;;;7.88;6.28;;;;;;;;;;4993479;28;20081;-55
2021/05/19 12:21:41;;;;;;;5.80;4.68;;;;;;;;;;5010083;28;20054;-51
2021/05/19 12:24:10;;;;;;;4.78;4.28;;;;;;;;;;4994877;28;20050;-53
2021/05/19 12:26:41;;;;;;;4.85;4.25;;;;;;;;;;4994670;28;20066;-53
2021/05/19 12:29:28;;;;;;;5.28;4.78;;;;;;;;;;5004271;28;20136;-52
2021/05/19 12:32:12;;;;;;;6.82;4.72;;;;;;;;;;5014218;28;20046;-54
2021/05/19 12:34:39;;;;;;;9.25;6.30;;;;;;;;;;5012828;28;20054;-50
2021/05/19 12:37:07;;;;;;;8.02;7.18;;;;;;;;;;4992444;28;20156;-50
2021/05/19 12:39:35;;;;;;;8.40;6.47;;;;;;;;;;5008138;28;20050;-51
2021/05/19 12:42:15;;;;;;;7.90;6.32;;;;;;;;;;5004814;22;20042;-50
2021/05/19 12:44:42;;;;;;;12.20;7.82;;;;;;;;;;4992234;28;20054;-50
2021/05/19 12:47:11;;;;;;;13.20;8.57;;;;;;;;;;4980791;28;20134;-49
2021/05/19 12:49:42;;;;;;;9.93;7.90;;;;;;;;;;4991873;28;20101;-48
2021/05/19 12:52:16;;;;;;;9.52;8.10;;;;;;;;;;4974819;28;20136;-50
2021/05/19 12:54:53;;;;;;;8.18;7.05;;;;;;;;;;4992848;28;20566;-47
2021/05/19 12:57:27;;;;;;;10.20;7.82;;;;;;;;;;4984844;28;20113;-47
2021/05/19 13:00:02;;;;;;;6.90;5.50;;;;;;;;;;4982315;28;20097;-48
2021/05/19 13:02:40;;;;;;;7.63;5.68;;;;;;;;;;4991275;28;20073;-49
2021/05/19 13:05:23;;;;;;;11.18;8.48;;;;;;;;;;4992428;28;20504;-48
2021/05/19 13:07:51;;;;;;;9.82;8.70;;;;;;;;;;4982981;28;20569;-47
2021/05/19 13:10:25;;;;;;;8.93;7.70;;;;;;;;;;4991606;28;20073;-51
2021/05/19 13:13:23;;;;;;;10.55;8.50;;;;;;;;;;4991437;28;20058;-44
2021/05/19 13:21:24;;;;;;;6.30;5.10;;;;;;;;;;4990991;28;20057;-45
2021/05/19 13:23:52;;;;;;;6.93;4.18;;;;;;;;;;4990038;28;20482;-45
2021/05/19 13:26:23;;;;;;;5.00;4.50;;;;;;;;;;4971999;28;20058;-49
2021/05/19 13:28:50;;;;;;;8.00;4.22;;;;;;;;;;4977831;28;20105;-49
2021/05/19 13:31:18;;;;;;;4.03;3.30;;;;;;;;;;4992293;28;20133;-49
2021/05/19 13:38:48;;;;;;;5.40;3.08;;;;;;;;;;4989343;28;20046;-47
2021/05/19 13:41:16;;;;;;;3.78;3.30;;;;;;;;;;4990868;28;20060;-52
2021/05/19 13:43:45;;;;;;;4.32;2.92;;;;;;;;;;4990939;28;20081;-49
2021/05/19 13:46:13;;;;;;;3.55;2.60;;;;;;;;;;4991167;28;20129;-44
2021/05/19 13:48:41;;;;;;;3.58;2.72;;;;;;;;;;4975826;28;20062;-47
2021/05/19 13:51:07;;;;;;;3.63;2.47;;;;;;;;;;4987353;28;20065;-47
2021/05/19 13:53:34;;;;;;;3.17;2.28;;;;;;;;;;4990980;28;20059;-46
2021/05/19 13:56:06;;;;;;;4.20;2.30;;;;;;;;;;4989762;28;20053;-49
2021/05/19 13:58:34;;;;;;;3.00;2.13;;;;;;;;;;4976091;28;20122;-45
2021/05/19 14:01:03;;;;;;;4.78;1.98;;;;;;;;;;4988676;28;20053;-49
2021/05/19 14:03:30;;;;;;;2.60;2.00;;;;;;;;;;4991389;28;20054;-51
2021/05/19 14:06:13;;;;;;;3.53;2.10;;;;;;;;;;4973010;28;20055;-48
2021/05/19 14:08:40;;;;;;;2.72;2.10;;;;;;;;;;4980053;28;20048;-50
2021/05/19 14:11:13;;;;;;;2.88;2.20;;;;;;;;;;4990209;28;20046;-47
2021/05/19 14:13:55;;;;;;;4.38;2.38;;;;;;;;;;4988750;28;20054;-44
2021/05/19 14:27:15;;;;;;;3.05;1.80;;;;;;;;;;4972175;28;20135;-50
2021/05/19 14:29:44;;;;;;;2.60;1.88;;;;;;;;;;4972322;28;20047;-49
2021/05/19 14:32:11;;;;;;;4.32;2.20;;;;;;;;;;4986539;28;20565;-50
2021/05/19 14:34:39;;;;;;;3.20;2.25;;;;;;;;;;4990525;28;20054;-52
2021/05/19 14:37:30;;;;;;;3.03;2.10;;;;;;;;;;4988193;28;20070;-49
2021/05/19 14:43:22;;;;;;;2.78;1.80;;;;;;;;;;4990170;28;20492;-50
2021/05/19 14:44:03;;;;;;;4.63;2.17;;;;;;;;;;4990636;28;20055;-43
2021/05/19 14:58:57;;;;;;;2.80;1.90;;;;;;;;;;4985722;28;20043;-43
2021/05/19 14:59:47;;;;;;;3.03;1.77;;;;;;;;;;4990976;28;20039;-49
2021/05/19 15:02:17;;;;;;;3.90;2.67;;;;;;;;;;4986953;28;20046;-46
2021/05/19 15:04:46;;;;;;;2.85;1.85;;;;;;;;;;4994448;28;20050;-45
2021/05/19 15:07:13;;;;;;;2.45;1.63;;;;;;;;;;4986208;28;20504;-51
2021/05/19 15:09:40;;;;;;;5.07;2.75;;;;;;;;;;4992869;28;20081;-47
2021/05/19 15:12:07;;;;;;;2.72;2.22;;;;;;;;;;4993435;28;20097;-49
2021/05/19 15:14:34;;;;;;;2.88;1.63;;;;;;;;;;4992022;28;20054;-45
2021/05/19 15:17:01;;;;;;;2.50;1.50;;;;;;;;;;4991467;28;20158;-45
2021/05/19 15:19:28;;;;;;;3.45;1.35;;;;;;;;;;4994404;28;20046;-49
2021/05/19 15:21:54;;;;;;;3.33;1.65;;;;;;;;;;4998054;28;20047;-49
2021/05/19 15:24:22;;;;;;;1.63;1.20;;;;;;;;;;4985353;28;20519;-44
2021/05/19 15:26:49;;;;;;;1.60;1.17;;;;;;;;;;4987326;28;20053;-47
2021/05/19 15:29:16;;;;;;;2.05;1.20;;;;;;;;;;4990626;28;20547;-47
2021/05/19 15:31:43;;;;;;;1.40;0.98;;;;;;;;;;4987598;28;20058;-44
2021/05/19 15:34:15;;;;;;;1.60;1.10;;;;;;;;;;4993190;28;20050;-45
2021/05/19 15:36:43;;;;;;;1.65;1.20;;;;;;;;;;4989658;28;20124;-47
2021/05/19 15:39:10;;;;;;;2.50;1.10;;;;;;;;;;4987555;28;20050;-45